Flight Track Log - Related Links

Times and Time Zones

All times are in EDT time to prevent confusion due to time zone crossing. See the N960DL flight status page for this flight to view local times or setup timezone preferences in your user account.

Time Position Orientation Groundspeed Altitude Reporting Facility
EDT Latitude Longitude Course Direction KTS MPH feet Rate Location/Type
Wed 03:47:33 PM 33.6500 -84.4500 323° Northwest 150 173 2,100  Level Atlanta TRACON
Wed 03:48:27 PM 33.6667 -84.5000 292° West 229 264 3,400 2,263 Climbing Atlanta TRACON
Wed 03:49:27 PM 33.7000 -84.5833 296° West 264 304 6,400 2,900 Climbing Atlanta TRACON
Wed 03:50:00 PM 33.9197 -84.2530 320° Northwest  Level FlightAware
Wed 03:50:27 PM 33.7333 -84.6667 296° West 291 335 9,200  Level Atlanta TRACON
Wed 03:51:00 PM 34.0113 -84.3446 320° Northwest  Level FlightAware
Wed 03:51:27 PM 33.7833 -84.7500 306° West 332 382 10,000  Level Atlanta TRACON
Wed 03:52:00 PM 34.1071 -84.4231 323° Northwest  Level FlightAware
Wed 03:52:27 PM 33.8833 -84.7500 360° North 389 448 11,800  Level Atlanta TRACON
Wed 03:52:56 PM 33.9300 -84.7297 20° North 422 486 12,900 1,483 Climbing Atlanta Center
Wed 03:53:56 PM 34.0367 -84.6906 17° North 424 488 14,000 850 Climbing Atlanta Center
Wed 03:54:56 PM 34.1350 -84.6536 17° North 377 434 14,600 1,650 Climbing Atlanta Center
Wed 03:55:56 PM 34.2186 -84.6217 18° North 346 398 17,300 1,750 Climbing Atlanta Center
Wed 03:56:56 PM 34.3106 -84.6022 10° North 323 372 18,100 850 Climbing Atlanta Center
Wed 03:57:56 PM 34.4064 -84.6253 349° North 365 420 19,000 1,250 Climbing Atlanta Center
Wed 03:58:56 PM 34.5211 -84.6514 349° North 401 461 20,600 1,600 Climbing Atlanta Center
Wed 03:59:56 PM 34.6400 -84.6850 347° North 429 494 22,200 1,550 Climbing Atlanta Center
Wed 04:00:56 PM 34.7733 -84.7164 349° North 434 499 23,700 1,400 Climbing Atlanta Center
Wed 04:01:56 PM 34.8983 -84.7478 348° North 444 511 25,000 650 Climbing Atlanta Center
Wed 04:02:56 PM 35.0233 -84.7819 347° North 449 517 25,000  Level Atlanta Center
Wed 04:03:56 PM 35.1442 -84.8108 349° North 449 517 25,000 500 Level Atlanta Center
Wed 04:04:56 PM 35.2650 -84.8400 349° North 449 517 26,000 1,350 Climbing Atlanta Center
Wed 04:05:56 PM 35.3900 -84.8719 348° North 449 517 27,700 1,850 Climbing Atlanta Center
Wed 04:06:56 PM 35.5086 -84.9036 348° North 449 517 29,700 1,900 Climbing Atlanta Center
Wed 04:07:56 PM 35.6253 -84.9331 348° North 444 511 31,500 1,150 Climbing Atlanta Center
Wed 04:08:56 PM 35.7356 -84.9622 348° North 423 487 32,000 600 Climbing Atlanta Center
Wed 04:09:56 PM 35.8461 -84.9842 351° North 423 487 32,700 992 Climbing Atlanta Center
Wed 04:10:57 PM 35.9772 -85.0214 347° North 427 491 34,000 634 Climbing Indianapolis Center
Wed 04:11:59 PM 36.0886 -85.0481 349° North 413 475 34,000  Level Indianapolis Center
Wed 04:13:01 PM 36.1997 -85.0756 349° North 406 467 34,000  Level Indianapolis Center
Wed 04:14:03 PM 36.3114 -85.1047 348° North 407 468 34,000  Level Indianapolis Center
Wed 04:15:05 PM 36.4231 -85.1339 348° North 411 473 34,000  Level Indianapolis Center
Wed 04:16:08 PM 36.5350 -85.1611 349° North 409 471 34,000  Level Indianapolis Center
Wed 04:17:10 PM 36.6478 -85.1856 350° North 409 471 34,000  Level Indianapolis Center
Wed 04:18:12 PM 36.7817 -85.2214 348° North 411 473 34,000  Level Indianapolis Center
Wed 04:19:14 PM 36.8933 -85.2528 347° North 409 471 34,000  Level Indianapolis Center
Wed 04:20:16 PM 37.0067 -85.2808 349° North 415 478 34,000  Level Indianapolis Center
Wed 04:21:18 PM 37.1275 -85.2861 358° North 421 484 34,000  Level Indianapolis Center
Wed 04:22:21 PM 37.2456 -85.2897 359° North 422 486 34,000  Level Indianapolis Center
Wed 04:23:22 PM 37.3633 -85.2931 359° North 421 484 34,000  Level Indianapolis Center
Wed 04:24:24 PM 37.5025 -85.2983 358° North 425 489 34,000  Level Indianapolis Center
Wed 04:25:26 PM 37.6233 -85.3033 358° North 429 494 34,000  Level Indianapolis Center
Wed 04:26:28 PM 37.7444 -85.3069 359° North 432 497 34,000  Level Indianapolis Center
Wed 04:27:30 PM 37.8528 -85.3100 359° North 437 503 34,000  Level Indianapolis Center
Wed 04:28:32 PM 38.0003 -85.3164 358° North 441 507 34,000  Level Indianapolis Center
Wed 04:29:34 PM 38.1228 -85.3194 359° North 440 506 34,000  Level Indianapolis Center
Wed 04:30:36 PM 38.2442 -85.3247 358° North 436 502 34,000  Level Indianapolis Center
Wed 04:31:38 PM 38.3644 -85.3294 358° North 433 498 34,000  Level Indianapolis Center
Wed 04:32:40 PM 38.4861 -85.3350 358° North 435 501 34,000  Level Indianapolis Center
Wed 04:33:43 PM 38.6061 -85.3389 359° North 432 497 34,000  Level Indianapolis Center
Wed 04:34:45 PM 38.7328 -85.3442 358° North 433 498 34,000  Level Indianapolis Center
Wed 04:35:47 PM 38.8542 -85.3469 359° North 435 501 34,000  Level Indianapolis Center
Wed 04:36:49 PM 38.9989 -85.3517 359° North 436 502 34,000  Level Indianapolis Center
Wed 04:37:51 PM 39.1200 -85.3542 359° North 435 501 34,000  Level Indianapolis Center
Wed 04:38:53 PM 39.2403 -85.3592 358° North 435 501 34,000  Level Indianapolis Center
Wed 04:39:55 PM 39.3625 -85.3614 359° North 440 506 34,000  Level Indianapolis Center
Wed 04:40:57 PM 39.4850 -85.3667 358° North 441 507 34,000  Level Indianapolis Center
Wed 04:41:59 PM 39.6311 -85.3717 358° North 441 507 34,000  Level Indianapolis Center
Wed 04:43:01 PM 39.7525 -85.3756 359° North 440 506 34,000 -97 Level Indianapolis Center
Wed 04:44:03 PM 39.8728 -85.3797 358° North 436 502 33,800 -919 Descending Indianapolis Center
Wed 04:45:05 PM 39.9947 -85.3833 359° North 441 507 32,100 -871 Descending Indianapolis Center
Wed 04:46:07 PM 40.1153 -85.3886 358° North 437 503 32,000 -48 Descending Indianapolis Center
Wed 04:47:09 PM 40.2614 -85.3961 358° North 440 506 32,000  Level Indianapolis Center
Wed 04:48:11 PM 40.3861 -85.4028 358° North 450 518 32,000  Level Indianapolis Center
Wed 04:48:51 PM 40.4619 -85.4050 359° North 451 519 32,000  Level Chicago Center
Wed 04:49:53 PM 40.5864 -85.4117 358° North 450 518 32,000  Level Chicago Center
Wed 04:50:55 PM 40.7189 -85.4172 358° North 445 512 32,000  Level Chicago Center
Wed 04:51:57 PM 40.8425 -85.4236 358° North 445 512 32,000 -484 Level Chicago Center
Wed 04:52:59 PM 40.9661 -85.4278 359° North 445 512 31,000 -1,742 Descending Chicago Center
Wed 04:54:01 PM 41.1161 -85.4308 359° North 450 518 28,400 -2,323 Descending Chicago Center
Wed 04:55:03 PM 41.2397 -85.4333 359° North 447 514 26,200 -1,161 Descending Chicago Center
Wed 04:56:05 PM 41.3603 -85.4372 359° North 437 503 26,000 -97 Descending Chicago Center
Wed 04:57:07 PM 41.4797 -85.4436 358° North 432 497 26,000 -145 Level Chicago Center
Wed 04:58:09 PM 41.5986 -85.4497 358° North 433 498 25,700 -864 Descending Chicago Center
Wed 04:59:12 PM 41.7322 -85.4542 359° North 436 502 24,200 -1,344 Descending Chicago Center
Wed 05:00:14 PM 41.8472 -85.4586 358° North 417 480 22,900 -1,065 Descending Chicago Center
Wed 05:01:16 PM 41.9525 -85.4633 358° North 384 442 22,000 -1,403 Descending Chicago Center
Wed 05:02:18 PM 42.0661 -85.4683 358° North 378 435 20,000 -1,694 Descending Chicago Center
Wed 05:03:20 PM 42.1719 -85.4717 359° North 383 441 18,500 -1,452 Descending Chicago Center
Wed 05:04:22 PM 42.2694 -85.4744 359° North 361 415 17,000 -2,177 Descending Chicago Center
Wed 05:05:24 PM 42.3850 -85.4839 357° North 348 400 14,000 -2,661 Descending Chicago Center
Wed 05:06:26 PM 42.4647 -85.5386 333° Northwest 323 372 11,500 -1,500 Descending Chicago Center
Wed 05:07:28 PM 42.5378 -85.5942 331° Northwest 302 348 10,900 -1,016 Descending Chicago Center
Wed 05:08:30 PM 42.6031 -85.6436 331° Northwest 275 316 9,400 -1,452 Descending Chicago Center

Login

Don't have an account? Register now (free) for customized features, flight alerts, and more!